CMA CGM Volga — 5BJR2 — position and weather

sailwx.info

Track history (hours):
 
Tides and Currents Weather Stations Pressure Air Temp Water Temp Dewpoint Dewpoint Depression Visibility Wind Speed Wind Dir Waves Ship Positions

CMA CGM Volga

Last reported at 2016-May-02 01:32 UTC. Time now 2016-May-03 10:34 UTC.
Position N 59°35' E 023°05'.

Length 184 m; draft 7.4 m.

Type: Ship (hazmat cat A). MMSI: 212456000.

Date/timePositionNaut miles runAvg speedWind from/ knotsBaromVisibWave heightAir tempDewpointWater temp
2016-May-02 01:32N 59°35' E 023°05'1413.9
2016-May-02 00:33N 59°39' E 023°30'1513.7
2016-May-01 23:27N 59°43' E 023°59'4613.5
2016-May-01 20:04N 59°53' E 025°28'713.9
2016-May-01 19:33N 59°55' E 025°42'1413.5
2016-May-01 18:32N 59°58' E 026°08'1313.3
2016-May-01 17:33N 60°01' E 026°34'1514.4
2016-May-01 16:31N 59°59' E 027°04'1515.5
2016-May-01 15:32N 60°07' E 027°29'1514.3
2016-May-01 14:29N 60°10' E 027°59'1415.3
2016-May-01 13:33N 60°05' E 028°26'1815.5
2016-May-01 12:23N 60°03' E 029°02'1315.2
2016-May-01 11:33N 60°02' E 029°27'1110.6
2016-May-01 10:31N 59°58' E 029°47'10 9.5
2016-May-01 09:25N 59°54' E 030°07'3 3.4
2016-May-01 08:34N 59°53' E 030°12'0 0.0
2016-May-01 07:34N 59°53' E 030°12'0 0.0
2016-May-01 06:34N 59°53' E 030°12'0 0.0
2016-May-01 05:28N 59°53' E 030°12'0 0.0
2016-May-01 04:34N 59°53' E 030°12'0 0.0
2016-May-01 03:34N 59°53' E 030°12'0 0.0
2016-May-01 02:34N 59°53' E 030°12'0 0.0
2016-May-01 01:31N 59°53' E 030°12'0 0.0
2016-May-01 00:28N 59°53' E 030°12'0 0.0
2016-Apr-30 23:34N 59°53' E 030°12'0 0.0
2016-Apr-30 22:31N 59°53' E 030°12'0 0.0
2016-Apr-30 21:25N 59°53' E 030°12'0 0.0
2016-Apr-30 20:33N 59°53' E 030°12'0 0.0
2016-Apr-30 19:30N 59°53' E 030°12'0 0.0
2016-Apr-30 18:30N 59°53' E 030°12'0 0.0
2016-Apr-30 17:33N 59°53' E 030°12'0 0.0
2016-Apr-30 16:33N 59°53' E 030°12'0 0.0
2016-Apr-30 15:33N 59°53' E 030°12'0 0.0
2016-Apr-30 14:33N 59°53' E 030°12'7 7.5
2016-Apr-30 13:33N 59°56' E 029°58'1110.8
2016-Apr-30 12:33N 60°00' E 029°38'2412.1
2016-Apr-30 10:32N 60°02' E 028°50'1313.2
2016-Apr-30 09:33N 59°53' E 028°30'1212.0
2016-Apr-30 08:33N 59°42' E 028°24'1 1.0
2016-Apr-30 07:26N 59°40' E 028°24'0 0.0
2016-Apr-30 06:12N 59°40' E 028°24'0 0.0
2016-Apr-30 05:18N 59°40' E 028°24'0 0.0
2016-Apr-30 04:33N 59°40' E 028°24'0 0.0
2016-Apr-30 03:33N 59°40' E 028°24'0 0.0
2016-Apr-30 02:33N 59°40' E 028°24'0 0.0
2016-Apr-30 01:33N 59°40' E 028°24'0 0.0
2016-Apr-30 00:33N 59°40' E 028°24'0 0.0
2016-Apr-29 23:33N 59°40' E 028°24'0 0.0
2016-Apr-29 22:33N 59°40' E 028°24'0 0.0
2016-Apr-29 21:24N 59°40' E 028°24'0 0.0
2016-Apr-29 20:21N 59°40' E 028°24'0 0.0
2016-Apr-29 19:27N 59°40' E 028°24'0 0.0
2016-Apr-29 18:24N 59°40' E 028°24'0 0.0
2016-Apr-29 17:27N 59°40' E 028°24'0 0.0
2016-Apr-29 16:30N 59°40' E 028°24'4 4.1
2016-Apr-29 15:33N 59°44' E 028°24'1313.4
2016-Apr-29 14:33N 59°56' E 028°34'1211.6
2016-Apr-29 13:33N 60°05' E 028°19'1615.5
2016-Apr-29 12:31N 60°11' E 027°48'1515.9
2016-Apr-29 11:33N 60°03' E 027°22'1514.9
2016-Apr-29 10:33N 59°58' E 026°53'1815.5
2016-Apr-29 09:24N 59°57' E 026°18'1416.2
2016-Apr-29 08:33N 59°54' E 025°51'6917.0
2016-Apr-29 04:31N 59°36' E 023°40'31816.6
2016-Apr-28 09:23N 54°56' E 019°04'1417.3
2016-Apr-28 08:33N 54°41' E 019°06'1616.2
2016-Apr-28 07:33N 54°26' E 018°57'9 8.5
2016-Apr-28 06:33N 54°23' E 018°43'0 0.0
2016-Apr-28 05:33N 54°23' E 018°43'0 0.0
2016-Apr-28 04:33N 54°23' E 018°43'0 0.0
2016-Apr-28 03:33N 54°23' E 018°43'0 0.0
2016-Apr-28 02:33N 54°23' E 018°43'0 0.0
2016-Apr-28 01:30N 54°23' E 018°43'0 0.0
2016-Apr-28 00:33N 54°23' E 018°43'0 0.0
2016-Apr-27 23:30N 54°23' E 018°43'0 0.0
2016-Apr-27 22:27N 54°23' E 018°43'0 0.0
2016-Apr-27 21:33N 54°23' E 018°43'0 0.0
2016-Apr-27 20:33N 54°23' E 018°43'0 0.0
2016-Apr-27 19:33N 54°23' E 018°43'0 0.0
2016-Apr-27 18:32N 54°23' E 018°43'0 0.0
2016-Apr-27 17:32N 54°23' E 018°43'0 0.0
2016-Apr-27 16:32N 54°23' E 018°43'0 0.0
2016-Apr-27 15:32N 54°23' E 018°43'0 0.0
2016-Apr-27 14:32N 54°23' E 018°43'0 0.0
2016-Apr-27 13:32N 54°23' E 018°43'0 0.0
2016-Apr-27 12:29N 54°23' E 018°43'0 0.0
2016-Apr-27 11:32N 54°23' E 018°43'0 0.0
2016-Apr-27 10:32N 54°23' E 018°43'0 0.0
2016-Apr-27 09:32N 54°23' E 018°43'0 0.0
2016-Apr-27 08:29N 54°23' E 018°43'0 0.0
2016-Apr-27 07:32N 54°23' E 018°43'0 0.0
2016-Apr-27 06:32N 54°23' E 018°43'0 0.0
2016-Apr-27 04:32N 54°23' E 018°43'0 0.5
2016-Apr-27 03:34N 54°24' E 018°43'6 5.8
2016-Apr-27 02:33N 54°28' E 018°51'0 0.1
2016-Apr-27 01:33N 54°28' E 018°51'0 0.0
2016-Apr-27 00:30N 54°28' E 018°51'0 0.0
2016-Apr-26 23:31N 54°28' E 018°51'0 0.1
2016-Apr-26 22:31N 54°28' E 018°51'0 0.0
2016-Apr-26 21:32N 54°28' E 018°51'0 0.0
2016-Apr-26 20:32N 54°28' E 018°51'0 0.2
2016-Apr-26 19:32N 54°28' E 018°50'0 0.0
2016-Apr-26 18:26N 54°28' E 018°50'0 0.0
2016-Apr-26 17:32N 54°28' E 018°50'0 0.0
2016-Apr-26 16:29N 54°28' E 018°50'0 0.0
2016-Apr-26 15:30N 54°28' E 018°50'0 0.0
2016-Apr-26 14:33N 54°28' E 018°50'1 0.6
2016-Apr-26 13:33N 54°27' E 018°51'1211.8
2016-Apr-26 12:33N 54°37' E 019°04'1414.3
2016-Apr-26 11:34N 54°51' E 019°09'1615.6
2016-Apr-26 10:33N 55°05' E 019°19'  
2016-Apr-22 15:32N 59°37' E 023°21'1313.5
2016-Apr-22 14:33N 59°41' E 023°46'  
Track history (hours):
 
Tides and Currents Weather Stations Pressure Air Temp Water Temp Dewpoint Dewpoint Depression Visibility Wind Speed Wind Dir Waves Ship Positions

CMA CGM Volga

Last reported at 2016-May-02 01:32 UTC. Time now 2016-May-03 10:34 UTC.
Position N 59°35' E 023°05'.

Length 184 m; draft 7.4 m.

Type: Ship (hazmat cat A). MMSI: 212456000.

Date/timePositionNaut miles runAvg speedWind from/ knotsBaromVisibWave heightAir tempDewpointWater temp
2016-May-02 01:32N 59°35' E 023°05'1413.9
2016-May-02 00:33N 59°39' E 023°30'1513.7
2016-May-01 23:27N 59°43' E 023°59'4613.5
2016-May-01 20:04N 59°53' E 025°28'713.9
2016-May-01 19:33N 59°55' E 025°42'1413.5
2016-May-01 18:32N 59°58' E 026°08'1313.3
2016-May-01 17:33N 60°01' E 026°34'1514.4
2016-May-01 16:31N 59°59' E 027°04'1515.5
2016-May-01 15:32N 60°07' E 027°29'1514.3
2016-May-01 14:29N 60°10' E 027°59'1415.3
2016-May-01 13:33N 60°05' E 028°26'1815.5
2016-May-01 12:23N 60°03' E 029°02'1315.2
2016-May-01 11:33N 60°02' E 029°27'1110.6
2016-May-01 10:31N 59°58' E 029°47'10 9.5
2016-May-01 09:25N 59°54' E 030°07'3 3.4
2016-May-01 08:34N 59°53' E 030°12'0 0.0
2016-May-01 07:34N 59°53' E 030°12'0 0.0
2016-May-01 06:34N 59°53' E 030°12'0 0.0
2016-May-01 05:28N 59°53' E 030°12'0 0.0
2016-May-01 04:34N 59°53' E 030°12'0 0.0
2016-May-01 03:34N 59°53' E 030°12'0 0.0
2016-May-01 02:34N 59°53' E 030°12'0 0.0
2016-May-01 01:31N 59°53' E 030°12'0 0.0
2016-May-01 00:28N 59°53' E 030°12'0 0.0
2016-Apr-30 23:34N 59°53' E 030°12'0 0.0
2016-Apr-30 22:31N 59°53' E 030°12'0 0.0
2016-Apr-30 21:25N 59°53' E 030°12'0 0.0
2016-Apr-30 20:33N 59°53' E 030°12'0 0.0
2016-Apr-30 19:30N 59°53' E 030°12'0 0.0
2016-Apr-30 18:30N 59°53' E 030°12'0 0.0
2016-Apr-30 17:33N 59°53' E 030°12'0 0.0
2016-Apr-30 16:33N 59°53' E 030°12'0 0.0
2016-Apr-30 15:33N 59°53' E 030°12'0 0.0
2016-Apr-30 14:33N 59°53' E 030°12'7 7.5
2016-Apr-30 13:33N 59°56' E 029°58'1110.8
2016-Apr-30 12:33N 60°00' E 029°38'2412.1
2016-Apr-30 10:32N 60°02' E 028°50'1313.2
2016-Apr-30 09:33N 59°53' E 028°30'1212.0
2016-Apr-30 08:33N 59°42' E 028°24'1 1.0
2016-Apr-30 07:26N 59°40' E 028°24'0 0.0
2016-Apr-30 06:12N 59°40' E 028°24'0 0.0
2016-Apr-30 05:18N 59°40' E 028°24'0 0.0
2016-Apr-30 04:33N 59°40' E 028°24'0 0.0
2016-Apr-30 03:33N 59°40' E 028°24'0 0.0
2016-Apr-30 02:33N 59°40' E 028°24'0 0.0
2016-Apr-30 01:33N 59°40' E 028°24'0 0.0
2016-Apr-30 00:33N 59°40' E 028°24'0 0.0
2016-Apr-29 23:33N 59°40' E 028°24'0 0.0
2016-Apr-29 22:33N 59°40' E 028°24'0 0.0
2016-Apr-29 21:24N 59°40' E 028°24'0 0.0
2016-Apr-29 20:21N 59°40' E 028°24'0 0.0
2016-Apr-29 19:27N 59°40' E 028°24'0 0.0
2016-Apr-29 18:24N 59°40' E 028°24'0 0.0
2016-Apr-29 17:27N 59°40' E 028°24'0 0.0
2016-Apr-29 16:30N 59°40' E 028°24'4 4.1
2016-Apr-29 15:33N 59°44' E 028°24'1313.4
2016-Apr-29 14:33N 59°56' E 028°34'1211.6
2016-Apr-29 13:33N 60°05' E 028°19'1615.5
2016-Apr-29 12:31N 60°11' E 027°48'1515.9
2016-Apr-29 11:33N 60°03' E 027°22'1514.9
2016-Apr-29 10:33N 59°58' E 026°53'1815.5
2016-Apr-29 09:24N 59°57' E 026°18'1416.2
2016-Apr-29 08:33N 59°54' E 025°51'6917.0
2016-Apr-29 04:31N 59°36' E 023°40'31816.6
2016-Apr-28 09:23N 54°56' E 019°04'1417.3
2016-Apr-28 08:33N 54°41' E 019°06'1616.2
2016-Apr-28 07:33N 54°26' E 018°57'9 8.5
2016-Apr-28 06:33N 54°23' E 018°43'0 0.0
2016-Apr-28 05:33N 54°23' E 018°43'0 0.0
2016-Apr-28 04:33N 54°23' E 018°43'0 0.0
2016-Apr-28 03:33N 54°23' E 018°43'0 0.0
2016-Apr-28 02:33N 54°23' E 018°43'0 0.0
2016-Apr-28 01:30N 54°23' E 018°43'0 0.0
2016-Apr-28 00:33N 54°23' E 018°43'0 0.0
2016-Apr-27 23:30N 54°23' E 018°43'0 0.0
2016-Apr-27 22:27N 54°23' E 018°43'0 0.0
2016-Apr-27 21:33N 54°23' E 018°43'0 0.0
2016-Apr-27 20:33N 54°23' E 018°43'0 0.0
2016-Apr-27 19:33N 54°23' E 018°43'0 0.0
2016-Apr-27 18:32N 54°23' E 018°43'0 0.0
2016-Apr-27 17:32N 54°23' E 018°43'0 0.0
2016-Apr-27 16:32N 54°23' E 018°43'0 0.0
2016-Apr-27 15:32N 54°23' E 018°43'0 0.0
2016-Apr-27 14:32N 54°23' E 018°43'0 0.0
2016-Apr-27 13:32N 54°23' E 018°43'0 0.0
2016-Apr-27 12:29N 54°23' E 018°43'0 0.0
2016-Apr-27 11:32N 54°23' E 018°43'0 0.0
2016-Apr-27 10:32N 54°23' E 018°43'0 0.0
2016-Apr-27 09:32N 54°23' E 018°43'0 0.0
2016-Apr-27 08:29N 54°23' E 018°43'0 0.0
2016-Apr-27 07:32N 54°23' E 018°43'0 0.0
2016-Apr-27 06:32N 54°23' E 018°43'0 0.0
2016-Apr-27 04:32N 54°23' E 018°43'0 0.5
2016-Apr-27 03:34N 54°24' E 018°43'6 5.8
2016-Apr-27 02:33N 54°28' E 018°51'0 0.1
2016-Apr-27 01:33N 54°28' E 018°51'0 0.0
2016-Apr-27 00:30N 54°28' E 018°51'0 0.0
2016-Apr-26 23:31N 54°28' E 018°51'0 0.1
2016-Apr-26 22:31N 54°28' E 018°51'0 0.0
2016-Apr-26 21:32N 54°28' E 018°51'0 0.0
2016-Apr-26 20:32N 54°28' E 018°51'0 0.2
2016-Apr-26 19:32N 54°28' E 018°50'0 0.0
2016-Apr-26 18:26N 54°28' E 018°50'0 0.0
2016-Apr-26 17:32N 54°28' E 018°50'0 0.0
2016-Apr-26 16:29N 54°28' E 018°50'0 0.0
2016-Apr-26 15:30N 54°28' E 018°50'0 0.0
2016-Apr-26 14:33N 54°28' E 018°50'1 0.6
2016-Apr-26 13:33N 54°27' E 018°51'1211.8
2016-Apr-26 12:33N 54°37' E 019°04'1414.3
2016-Apr-26 11:34N 54°51' E 019°09'1615.6
2016-Apr-26 10:33N 55°05' E 019°19'  
2016-Apr-22 15:32N 59°37' E 023°21'1313.5
2016-Apr-22 14:33N 59°41' E 023°46'  

Dump ship's entire track history